sensor_id;sensor_type;location;lat;lon;timestamp;P1;durP1;ratioP1;P2;durP2;ratioP2
71106;SDS011;58763;47.982;11.516;2022-08-11T00:02:22;5.18;;;2.80;;
71106;SDS011;58763;47.982;11.516;2022-08-11T00:05:11;6.93;;;2.70;;
71106;SDS011;58763;47.982;11.516;2022-08-11T00:07:42;4.25;;;2.72;;
71106;SDS011;58763;47.982;11.516;2022-08-11T00:10:14;4.45;;;2.63;;
71106;SDS011;58763;47.982;11.516;2022-08-11T00:12:42;5.03;;;2.50;;
71106;SDS011;58763;47.982;11.516;2022-08-11T00:15:09;5.53;;;2.53;;
71106;SDS011;58763;47.982;11.516;2022-08-11T00:17:36;5.20;;;2.70;;
71106;SDS011;58763;47.982;11.516;2022-08-11T00:20:06;4.90;;;3.05;;
71106;SDS011;58763;47.982;11.516;2022-08-11T00:22:39;4.80;;;2.92;;
71106;SDS011;58763;47.982;11.516;2022-08-11T00:27:43;5.32;;;2.72;;
71106;SDS011;58763;47.982;11.516;2022-08-11T00:30:10;5.65;;;3.00;;
71106;SDS011;58763;47.982;11.516;2022-08-11T00:32:37;5.68;;;2.92;;
71106;SDS011;58763;47.982;11.516;2022-08-11T00:35:04;6.28;;;3.30;;
71106;SDS011;58763;47.982;11.516;2022-08-11T00:37:32;5.35;;;3.10;;
71106;SDS011;58763;47.982;11.516;2022-08-11T00:39:59;4.78;;;3.00;;
71106;SDS011;58763;47.982;11.516;2022-08-11T00:42:42;4.38;;;2.70;;
71106;SDS011;58763;47.982;11.516;2022-08-11T00:45:35;4.38;;;2.95;;
71106;SDS011;58763;47.982;11.516;2022-08-11T00:48:22;4.97;;;3.55;;
71106;SDS011;58763;47.982;11.516;2022-08-11T00:56:22;4.83;;;3.33;;
71106;SDS011;58763;47.982;11.516;2022-08-11T00:59:07;5.47;;;2.90;;
71106;SDS011;58763;47.982;11.516;2022-08-11T01:13:01;4.60;;;2.90;;
71106;SDS011;58763;47.982;11.516;2022-08-11T01:42:56;5.40;;;3.15;;
71106;SDS011;58763;47.982;11.516;2022-08-11T01:51:13;6.28;;;3.50;;
71106;SDS011;58763;47.982;11.516;2022-08-11T02:07:58;6.28;;;3.60;;
71106;SDS011;58763;47.982;11.516;2022-08-11T02:10:35;6.15;;;3.55;;
71106;SDS011;58763;47.982;11.516;2022-08-11T02:19:00;4.88;;;3.47;;
71106;SDS011;58763;47.982;11.516;2022-08-11T02:25:09;4.75;;;3.33;;
71106;SDS011;58763;47.982;11.516;2022-08-11T02:28:01;6.47;;;3.85;;
71106;SDS011;58763;47.982;11.516;2022-08-11T02:30:37;6.13;;;3.75;;
71106;SDS011;58763;47.982;11.516;2022-08-11T02:33:30;5.15;;;3.30;;
71106;SDS011;58763;47.982;11.516;2022-08-11T02:38:50;4.80;;;3.42;;
71106;SDS011;58763;47.982;11.516;2022-08-11T02:41:35;6.43;;;3.80;;
71106;SDS011;58763;47.982;11.516;2022-08-11T02:44:26;5.47;;;4.00;;
71106;SDS011;58763;47.982;11.516;2022-08-11T02:47:08;5.00;;;3.05;;
71106;SDS011;58763;47.982;11.516;2022-08-11T02:54:58;5.55;;;3.67;;
71106;SDS011;58763;47.982;11.516;2022-08-11T02:57:46;7.03;;;3.60;;
71106;SDS011;58763;47.982;11.516;2022-08-11T03:00:17;9.55;;;3.83;;
71106;SDS011;58763;47.982;11.516;2022-08-11T03:08:37;4.72;;;3.03;;
71106;SDS011;58763;47.982;11.516;2022-08-11T03:20:30;6.28;;;3.63;;
71106;SDS011;58763;47.982;11.516;2022-08-11T03:23:08;4.95;;;3.33;;
71106;SDS011;58763;47.982;11.516;2022-08-11T03:25:54;6.50;;;4.23;;
71106;SDS011;58763;47.982;11.516;2022-08-11T03:28:35;5.60;;;4.05;;
71106;SDS011;58763;47.982;11.516;2022-08-11T03:31:26;5.88;;;3.40;;
71106;SDS011;58763;47.982;11.516;2022-08-11T03:34:01;4.90;;;3.45;;
71106;SDS011;58763;47.982;11.516;2022-08-11T03:44:42;5.55;;;3.80;;
71106;SDS011;58763;47.982;11.516;2022-08-11T03:53:04;6.47;;;3.72;;
71106;SDS011;58763;47.982;11.516;2022-08-11T04:12:33;7.35;;;3.83;;
71106;SDS011;58763;47.982;11.516;2022-08-11T04:29:24;5.65;;;3.70;;
71106;SDS011;58763;47.982;11.516;2022-08-11T04:34:58;5.57;;;3.78;;
71106;SDS011;58763;47.982;11.516;2022-08-11T04:37:48;7.95;;;4.50;;
71106;SDS011;58763;47.982;11.516;2022-08-11T04:46:13;5.28;;;3.80;;
71106;SDS011;58763;47.982;11.516;2022-08-11T04:52:21;8.10;;;4.05;;
71106;SDS011;58763;47.982;11.516;2022-08-11T05:13:04;7.45;;;4.28;;
71106;SDS011;58763;47.982;11.516;2022-08-11T05:16:02;5.65;;;3.97;;
71106;SDS011;58763;47.982;11.516;2022-08-11T05:18:54;5.80;;;3.85;;
71106;SDS011;58763;47.982;11.516;2022-08-11T05:21:41;6.47;;;4.70;;
71106;SDS011;58763;47.982;11.516;2022-08-11T05:24:32;7.15;;;4.60;;
71106;SDS011;58763;47.982;11.516;2022-08-11T05:27:28;8.02;;;4.30;;
71106;SDS011;58763;47.982;11.516;2022-08-11T05:30:20;8.23;;;4.97;;
71106;SDS011;58763;47.982;11.516;2022-08-11T05:36:00;7.95;;;4.85;;
71106;SDS011;58763;47.982;11.516;2022-08-11T05:38:33;8.23;;;5.40;;
71106;SDS011;58763;47.982;11.516;2022-08-11T05:41:20;9.38;;;5.10;;
71106;SDS011;58763;47.982;11.516;2022-08-11T05:44:08;6.55;;;5.40;;
71106;SDS011;58763;47.982;11.516;2022-08-11T05:46:53;8.48;;;4.93;;
71106;SDS011;58763;47.982;11.516;2022-08-11T05:49:37;7.72;;;5.20;;
71106;SDS011;58763;47.982;11.516;2022-08-11T05:52:22;9.05;;;5.00;;
71106;SDS011;58763;47.982;11.516;2022-08-11T05:55:09;5.78;;;4.47;;
71106;SDS011;58763;47.982;11.516;2022-08-11T05:57:54;9.55;;;4.97;;
71106;SDS011;58763;47.982;11.516;2022-08-11T06:00:21;6.22;;;4.53;;
71106;SDS011;58763;47.982;11.516;2022-08-11T06:02:53;5.78;;;4.35;;
71106;SDS011;58763;47.982;11.516;2022-08-11T06:05:23;8.65;;;5.13;;
71106;SDS011;58763;47.982;11.516;2022-08-11T06:07:56;7.07;;;4.88;;
71106;SDS011;58763;47.982;11.516;2022-08-11T06:10:27;9.77;;;5.07;;
71106;SDS011;58763;47.982;11.516;2022-08-11T06:12:57;9.40;;;5.15;;
71106;SDS011;58763;47.982;11.516;2022-08-11T06:15:25;7.78;;;5.07;;
71106;SDS011;58763;47.982;11.516;2022-08-11T06:17:51;9.18;;;4.97;;
71106;SDS011;58763;47.982;11.516;2022-08-11T06:20:19;8.93;;;4.90;;
71106;SDS011;58763;47.982;11.516;2022-08-11T06:22:46;7.07;;;4.78;;
71106;SDS011;58763;47.982;11.516;2022-08-11T06:25:19;8.90;;;5.35;;
71106;SDS011;58763;47.982;11.516;2022-08-11T06:27:45;6.63;;;4.90;;
71106;SDS011;58763;47.982;11.516;2022-08-11T06:30:21;7.30;;;5.00;;
71106;SDS011;58763;47.982;11.516;2022-08-11T06:32:59;6.78;;;4.93;;
71106;SDS011;58763;47.982;11.516;2022-08-11T06:35:31;9.27;;;4.93;;
71106;SDS011;58763;47.982;11.516;2022-08-11T06:38:14;5.95;;;4.60;;
71106;SDS011;58763;47.982;11.516;2022-08-11T06:40:54;7.00;;;5.05;;
71106;SDS011;58763;47.982;11.516;2022-08-11T06:46:07;7.32;;;4.80;;
71106;SDS011;58763;47.982;11.516;2022-08-11T06:48:36;8.07;;;4.30;;
71106;SDS011;58763;47.982;11.516;2022-08-11T06:51:05;7.57;;;4.70;;
71106;SDS011;58763;47.982;11.516;2022-08-11T06:53:55;8.40;;;4.78;;
71106;SDS011;58763;47.982;11.516;2022-08-11T06:56:34;6.88;;;4.00;;
71106;SDS011;58763;47.982;11.516;2022-08-11T06:59:21;7.30;;;4.43;;
71106;SDS011;58763;47.982;11.516;2022-08-11T07:02:14;11.32;;;4.43;;
71106;SDS011;58763;47.982;11.516;2022-08-11T07:14:35;7.50;;;4.00;;
71106;SDS011;58763;47.982;11.516;2022-08-11T07:17:24;7.85;;;4.20;;
71106;SDS011;58763;47.982;11.516;2022-08-11T07:19:54;6.88;;;3.85;;
71106;SDS011;58763;47.982;11.516;2022-08-11T07:22:42;9.23;;;4.55;;
71106;SDS011;58763;47.982;11.516;2022-08-11T07:25:38;6.55;;;3.80;;
71106;SDS011;58763;47.982;11.516;2022-08-11T07:28:25;7.50;;;3.90;;
71106;SDS011;58763;47.982;11.516;2022-08-11T07:36:39;8.25;;;3.97;;
71106;SDS011;58763;47.982;11.516;2022-08-11T07:39:14;6.18;;;4.05;;
71106;SDS011;58763;47.982;11.516;2022-08-11T07:41:45;6.70;;;3.65;;
71106;SDS011;58763;47.982;11.516;2022-08-11T07:44:12;6.40;;;3.97;;
71106;SDS011;58763;47.982;11.516;2022-08-11T07:46:41;6.45;;;3.78;;
71106;SDS011;58763;47.982;11.516;2022-08-11T07:49:28;5.88;;;3.88;;
71106;SDS011;58763;47.982;11.516;2022-08-11T07:52:14;7.18;;;3.85;;
71106;SDS011;58763;47.982;11.516;2022-08-11T07:54:55;6.15;;;3.20;;
71106;SDS011;58763;47.982;11.516;2022-08-11T07:57:23;8.20;;;3.88;;
71106;SDS011;58763;47.982;11.516;2022-08-11T08:00:09;7.10;;;4.05;;
71106;SDS011;58763;47.982;11.516;2022-08-11T08:02:54;5.65;;;3.70;;
71106;SDS011;58763;47.982;11.516;2022-08-11T08:05:39;4.90;;;3.15;;
71106;SDS011;58763;47.982;11.516;2022-08-11T08:08:24;5.43;;;3.22;;
71106;SDS011;58763;47.982;11.516;2022-08-11T08:11:09;5.93;;;3.40;;
71106;SDS011;58763;47.982;11.516;2022-08-11T08:13:54;6.13;;;3.10;;
71106;SDS011;58763;47.982;11.516;2022-08-11T08:16:38;6.22;;;3.47;;
71106;SDS011;58763;47.982;11.516;2022-08-11T08:19:24;6.25;;;3.78;;
71106;SDS011;58763;47.982;11.516;2022-08-11T08:21:50;6.68;;;3.80;;
71106;SDS011;58763;47.982;11.516;2022-08-11T08:24:16;6.53;;;3.53;;
71106;SDS011;58763;47.982;11.516;2022-08-11T08:26:44;7.53;;;3.30;;
71106;SDS011;58763;47.982;11.516;2022-08-11T08:29:30;7.25;;;3.47;;
71106;SDS011;58763;47.982;11.516;2022-08-11T08:32:17;5.95;;;3.70;;
71106;SDS011;58763;47.982;11.516;2022-08-11T08:34:45;7.10;;;3.30;;
71106;SDS011;58763;47.982;11.516;2022-08-11T08:37:11;7.35;;;3.88;;
71106;SDS011;58763;47.982;11.516;2022-08-11T08:39:38;8.40;;;3.40;;
71106;SDS011;58763;47.982;11.516;2022-08-11T08:42:10;6.95;;;3.45;;
71106;SDS011;58763;47.982;11.516;2022-08-11T08:44:41;6.15;;;3.33;;
71106;SDS011;58763;47.982;11.516;2022-08-11T08:47:11;6.63;;;3.08;;
71106;SDS011;58763;47.982;11.516;2022-08-11T08:49:40;7.97;;;3.30;;
71106;SDS011;58763;47.982;11.516;2022-08-11T08:52:14;5.88;;;3.08;;
71106;SDS011;58763;47.982;11.516;2022-08-11T08:54:43;5.47;;;3.33;;
71106;SDS011;58763;47.982;11.516;2022-08-11T08:57:10;5.25;;;2.95;;
71106;SDS011;58763;47.982;11.516;2022-08-11T08:59:41;5.35;;;2.90;;
71106;SDS011;58763;47.982;11.516;2022-08-11T09:02:11;5.05;;;3.03;;
71106;SDS011;58763;47.982;11.516;2022-08-11T09:04:37;5.13;;;2.90;;
71106;SDS011;58763;47.982;11.516;2022-08-11T09:07:08;7.28;;;3.45;;
71106;SDS011;58763;47.982;11.516;2022-08-11T09:09:50;5.70;;;3.00;;
71106;SDS011;58763;47.982;11.516;2022-08-11T09:12:17;5.72;;;3.22;;
71106;SDS011;58763;47.982;11.516;2022-08-11T09:14:46;5.55;;;3.00;;
71106;SDS011;58763;47.982;11.516;2022-08-11T09:17:28;5.15;;;3.22;;
71106;SDS011;58763;47.982;11.516;2022-08-11T09:20:04;7.80;;;3.40;;
71106;SDS011;58763;47.982;11.516;2022-08-11T09:22:35;6.53;;;3.20;;
71106;SDS011;58763;47.982;11.516;2022-08-11T09:25:24;5.83;;;2.97;;
71106;SDS011;58763;47.982;11.516;2022-08-11T09:28:10;6.35;;;3.17;;
71106;SDS011;58763;47.982;11.516;2022-08-11T09:30:39;5.20;;;2.42;;
71106;SDS011;58763;47.982;11.516;2022-08-11T09:33:06;6.85;;;3.20;;
71106;SDS011;58763;47.982;11.516;2022-08-11T09:35:35;4.20;;;2.85;;
71106;SDS011;58763;47.982;11.516;2022-08-11T09:38:03;7.03;;;3.15;;
71106;SDS011;58763;47.982;11.516;2022-08-11T09:41:04;5.25;;;2.67;;
71106;SDS011;58763;47.982;11.516;2022-08-11T09:43:32;4.32;;;2.85;;
71106;SDS011;58763;47.982;11.516;2022-08-11T09:46:22;4.85;;;2.67;;
71106;SDS011;58763;47.982;11.516;2022-08-11T09:48:53;6.82;;;2.83;;
71106;SDS011;58763;47.982;11.516;2022-08-11T09:51:23;4.53;;;2.72;;
71106;SDS011;58763;47.982;11.516;2022-08-11T09:53:53;3.83;;;2.63;;
71106;SDS011;58763;47.982;11.516;2022-08-11T09:56:21;4.78;;;2.88;;
71106;SDS011;58763;47.982;11.516;2022-08-11T09:59:07;6.68;;;2.90;;
71106;SDS011;58763;47.982;11.516;2022-08-11T10:01:34;5.38;;;2.80;;
71106;SDS011;58763;47.982;11.516;2022-08-11T10:04:12;5.30;;;3.05;;
71106;SDS011;58763;47.982;11.516;2022-08-11T10:06:43;4.80;;;2.58;;
71106;SDS011;58763;47.982;11.516;2022-08-11T10:09:45;4.53;;;2.90;;
71106;SDS011;58763;47.982;11.516;2022-08-11T10:12:19;5.47;;;2.65;;
71106;SDS011;58763;47.982;11.516;2022-08-11T10:14:51;8.48;;;2.67;;
71106;SDS011;58763;47.982;11.516;2022-08-11T10:17:38;5.57;;;2.85;;
71106;SDS011;58763;47.982;11.516;2022-08-11T10:20:36;5.85;;;2.83;;
71106;SDS011;58763;47.982;11.516;2022-08-11T10:23:02;5.75;;;2.45;;
71106;SDS011;58763;47.982;11.516;2022-08-11T10:25:47;4.75;;;2.83;;
71106;SDS011;58763;47.982;11.516;2022-08-11T10:28:33;4.28;;;2.67;;
71106;SDS011;58763;47.982;11.516;2022-08-11T10:31:01;5.80;;;2.80;;
71106;SDS011;58763;47.982;11.516;2022-08-11T10:33:48;4.75;;;2.70;;
71106;SDS011;58763;47.982;11.516;2022-08-11T10:39:14;5.25;;;2.65;;
71106;SDS011;58763;47.982;11.516;2022-08-11T10:41:46;4.25;;;2.50;;
71106;SDS011;58763;47.982;11.516;2022-08-11T10:44:38;5.37;;;2.63;;
71106;SDS011;58763;47.982;11.516;2022-08-11T10:47:06;4.88;;;2.78;;
71106;SDS011;58763;47.982;11.516;2022-08-11T10:49:53;5.28;;;2.50;;
71106;SDS011;58763;47.982;11.516;2022-08-11T10:52:39;4.88;;;2.60;;
71106;SDS011;58763;47.982;11.516;2022-08-11T10:55:24;9.32;;;2.85;;
71106;SDS011;58763;47.982;11.516;2022-08-11T10:58:09;5.63;;;2.70;;
71106;SDS011;58763;47.982;11.516;2022-08-11T11:00:54;4.90;;;2.47;;
71106;SDS011;58763;47.982;11.516;2022-08-11T11:03:23;6.43;;;2.38;;
71106;SDS011;58763;47.982;11.516;2022-08-11T11:05:51;4.22;;;2.65;;
71106;SDS011;58763;47.982;11.516;2022-08-11T11:08:21;3.75;;;2.22;;
71106;SDS011;58763;47.982;11.516;2022-08-11T11:11:12;4.68;;;2.58;;
71106;SDS011;58763;47.982;11.516;2022-08-11T11:13:40;5.80;;;2.40;;
71106;SDS011;58763;47.982;11.516;2022-08-11T11:16:30;6.10;;;2.60;;
71106;SDS011;58763;47.982;11.516;2022-08-11T11:19:14;4.13;;;2.30;;
71106;SDS011;58763;47.982;11.516;2022-08-11T11:21:45;4.55;;;2.30;;
71106;SDS011;58763;47.982;11.516;2022-08-11T11:29:30;5.30;;;2.30;;
71106;SDS011;58763;47.982;11.516;2022-08-11T11:35:10;6.82;;;2.53;;
71106;SDS011;58763;47.982;11.516;2022-08-11T11:37:44;5.20;;;2.38;;
71106;SDS011;58763;47.982;11.516;2022-08-11T11:40:17;6.00;;;2.40;;
71106;SDS011;58763;47.982;11.516;2022-08-11T11:42:47;5.35;;;2.40;;
71106;SDS011;58763;47.982;11.516;2022-08-11T11:45:15;4.90;;;2.30;;
71106;SDS011;58763;47.982;11.516;2022-08-11T11:47:43;4.60;;;2.60;;
71106;SDS011;58763;47.982;11.516;2022-08-11T11:50:10;4.60;;;2.53;;
71106;SDS011;58763;47.982;11.516;2022-08-11T11:52:38;4.10;;;2.40;;
71106;SDS011;58763;47.982;11.516;2022-08-11T11:55:05;6.53;;;2.38;;
71106;SDS011;58763;47.982;11.516;2022-08-11T11:57:31;3.63;;;2.10;;
71106;SDS011;58763;47.982;11.516;2022-08-11T12:00:17;4.55;;;2.35;;
71106;SDS011;58763;47.982;11.516;2022-08-11T12:03:08;4.68;;;2.42;;
71106;SDS011;58763;47.982;11.516;2022-08-11T12:05:35;3.47;;;2.20;;
71106;SDS011;58763;47.982;11.516;2022-08-11T12:08:02;4.72;;;2.60;;
71106;SDS011;58763;47.982;11.516;2022-08-11T12:10:44;4.07;;;2.15;;
71106;SDS011;58763;47.982;11.516;2022-08-11T12:13:37;3.83;;;2.20;;
71106;SDS011;58763;47.982;11.516;2022-08-11T12:16:07;3.78;;;2.03;;
71106;SDS011;58763;47.982;11.516;2022-08-11T12:18:34;4.13;;;2.28;;
71106;SDS011;58763;47.982;11.516;2022-08-11T12:21:01;4.68;;;2.33;;
71106;SDS011;58763;47.982;11.516;2022-08-11T12:23:28;5.43;;;2.30;;
71106;SDS011;58763;47.982;11.516;2022-08-11T12:26:15;3.20;;;2.00;;
71106;SDS011;58763;47.982;11.516;2022-08-11T12:29:00;4.55;;;2.85;;
71106;SDS011;58763;47.982;11.516;2022-08-11T12:31:29;4.63;;;2.10;;
71106;SDS011;58763;47.982;11.516;2022-08-11T12:34:00;3.90;;;1.90;;
71106;SDS011;58763;47.982;11.516;2022-08-11T12:36:31;7.50;;;2.30;;
71106;SDS011;58763;47.982;11.516;2022-08-11T12:39:01;4.22;;;2.10;;
71106;SDS011;58763;47.982;11.516;2022-08-11T12:41:30;4.10;;;2.00;;
71106;SDS011;58763;47.982;11.516;2022-08-11T12:44:18;4.47;;;1.90;;
71106;SDS011;58763;47.982;11.516;2022-08-11T12:47:06;6.20;;;2.13;;
71106;SDS011;58763;47.982;11.516;2022-08-11T12:49:34;5.05;;;1.92;;
71106;SDS011;58763;47.982;11.516;2022-08-11T12:52:24;4.85;;;1.88;;
71106;SDS011;58763;47.982;11.516;2022-08-11T12:57:41;6.03;;;2.30;;
71106;SDS011;58763;47.982;11.516;2022-08-11T13:00:28;4.68;;;1.90;;
71106;SDS011;58763;47.982;11.516;2022-08-11T13:03:14;3.78;;;2.05;;
71106;SDS011;58763;47.982;11.516;2022-08-11T13:06:03;5.45;;;2.20;;
71106;SDS011;58763;47.982;11.516;2022-08-11T13:08:30;5.75;;;1.92;;
71106;SDS011;58763;47.982;11.516;2022-08-11T13:11:00;4.43;;;1.73;;
71106;SDS011;58763;47.982;11.516;2022-08-11T13:13:46;3.40;;;1.70;;
71106;SDS011;58763;47.982;11.516;2022-08-11T13:16:13;7.10;;;1.98;;
71106;SDS011;58763;47.982;11.516;2022-08-11T13:18:41;4.13;;;1.92;;
71106;SDS011;58763;47.982;11.516;2022-08-11T13:21:11;5.47;;;1.90;;
71106;SDS011;58763;47.982;11.516;2022-08-11T13:23:38;4.25;;;1.60;;
71106;SDS011;58763;47.982;11.516;2022-08-11T13:26:04;6.00;;;1.80;;
71106;SDS011;58763;47.982;11.516;2022-08-11T13:28:33;5.22;;;1.80;;
71106;SDS011;58763;47.982;11.516;2022-08-11T13:31:00;4.20;;;1.75;;
71106;SDS011;58763;47.982;11.516;2022-08-11T13:33:45;5.15;;;1.75;;
71106;SDS011;58763;47.982;11.516;2022-08-11T13:36:19;4.20;;;1.90;;
71106;SDS011;58763;47.982;11.516;2022-08-11T13:38:48;4.57;;;2.08;;
71106;SDS011;58763;47.982;11.516;2022-08-11T13:41:14;4.78;;;1.90;;
71106;SDS011;58763;47.982;11.516;2022-08-11T13:44:00;3.78;;;1.85;;
71106;SDS011;58763;47.982;11.516;2022-08-11T13:46:26;3.80;;;1.90;;
71106;SDS011;58763;47.982;11.516;2022-08-11T13:48:53;5.20;;;2.10;;
71106;SDS011;58763;47.982;11.516;2022-08-11T13:51:21;4.55;;;1.40;;
71106;SDS011;58763;47.982;11.516;2022-08-11T13:53:58;3.85;;;1.90;;
71106;SDS011;58763;47.982;11.516;2022-08-11T13:56:26;3.67;;;1.70;;
71106;SDS011;58763;47.982;11.516;2022-08-11T13:58:54;5.15;;;2.00;;
71106;SDS011;58763;47.982;11.516;2022-08-11T14:01:21;3.70;;;1.63;;
71106;SDS011;58763;47.982;11.516;2022-08-11T14:03:51;3.08;;;1.80;;
71106;SDS011;58763;47.982;11.516;2022-08-11T14:06:18;3.13;;;1.85;;
71106;SDS011;58763;47.982;11.516;2022-08-11T14:08:46;5.07;;;1.75;;
71106;SDS011;58763;47.982;11.516;2022-08-11T14:11:14;4.05;;;1.80;;
71106;SDS011;58763;47.982;11.516;2022-08-11T14:14:00;4.93;;;1.83;;
71106;SDS011;58763;47.982;11.516;2022-08-11T14:16:32;4.45;;;1.83;;
71106;SDS011;58763;47.982;11.516;2022-08-11T14:19:04;8.68;;;1.83;;
71106;SDS011;58763;47.982;11.516;2022-08-11T14:21:35;3.58;;;1.60;;
71106;SDS011;58763;47.982;11.516;2022-08-11T14:24:23;3.15;;;1.65;;
71106;SDS011;58763;47.982;11.516;2022-08-11T14:26:51;3.65;;;1.67;;
71106;SDS011;58763;47.982;11.516;2022-08-11T14:29:18;3.50;;;1.90;;
71106;SDS011;58763;47.982;11.516;2022-08-11T14:31:46;3.58;;;1.85;;
71106;SDS011;58763;47.982;11.516;2022-08-11T14:34:14;5.10;;;1.80;;
71106;SDS011;58763;47.982;11.516;2022-08-11T14:36:46;5.05;;;1.80;;
71106;SDS011;58763;47.982;11.516;2022-08-11T14:39:18;4.63;;;1.58;;
71106;SDS011;58763;47.982;11.516;2022-08-11T14:41:53;4.07;;;1.73;;
71106;SDS011;58763;47.982;11.516;2022-08-11T14:44:40;3.97;;;1.45;;
71106;SDS011;58763;47.982;11.516;2022-08-11T14:47:27;7.60;;;1.70;;
71106;SDS011;58763;47.982;11.516;2022-08-11T14:49:55;3.50;;;1.63;;
71106;SDS011;58763;47.982;11.516;2022-08-11T14:52:23;5.63;;;1.75;;
71106;SDS011;58763;47.982;11.516;2022-08-11T14:54:50;4.68;;;1.60;;
71106;SDS011;58763;47.982;11.516;2022-08-11T14:57:36;3.85;;;1.85;;
71106;SDS011;58763;47.982;11.516;2022-08-11T15:00:05;3.28;;;1.50;;
71106;SDS011;58763;47.982;11.516;2022-08-11T15:02:37;3.30;;;1.40;;
71106;SDS011;58763;47.982;11.516;2022-08-11T15:05:25;2.80;;;1.27;;
71106;SDS011;58763;47.982;11.516;2022-08-11T15:07:52;4.28;;;1.60;;
71106;SDS011;58763;47.982;11.516;2022-08-11T15:10:19;3.38;;;1.60;;
71106;SDS011;58763;47.982;11.516;2022-08-11T15:12:46;4.25;;;1.73;;
71106;SDS011;58763;47.982;11.516;2022-08-11T15:15:12;4.03;;;1.50;;
71106;SDS011;58763;47.982;11.516;2022-08-11T15:17:58;2.92;;;1.60;;
71106;SDS011;58763;47.982;11.516;2022-08-11T15:20:26;3.53;;;1.70;;
71106;SDS011;58763;47.982;11.516;2022-08-11T15:23:12;3.70;;;1.88;;
71106;SDS011;58763;47.982;11.516;2022-08-11T15:26:18;4.10;;;1.45;;
71106;SDS011;58763;47.982;11.516;2022-08-11T15:29:07;4.13;;;1.70;;
71106;SDS011;58763;47.982;11.516;2022-08-11T15:31:52;3.90;;;1.67;;
71106;SDS011;58763;47.982;11.516;2022-08-11T15:34:37;3.80;;;1.70;;
71106;SDS011;58763;47.982;11.516;2022-08-11T15:37:22;4.38;;;1.88;;
71106;SDS011;58763;47.982;11.516;2022-08-11T15:45:59;6.43;;;1.63;;
71106;SDS011;58763;47.982;11.516;2022-08-11T15:51:16;3.20;;;1.67;;
71106;SDS011;58763;47.982;11.516;2022-08-11T15:53:53;4.25;;;1.70;;
71106;SDS011;58763;47.982;11.516;2022-08-11T15:56:23;2.60;;;1.20;;
71106;SDS011;58763;47.982;11.516;2022-08-11T15:58:52;3.55;;;1.63;;
71106;SDS011;58763;47.982;11.516;2022-08-11T16:01:39;5.68;;;1.70;;
71106;SDS011;58763;47.982;11.516;2022-08-11T16:04:25;3.00;;;1.50;;
71106;SDS011;58763;47.982;11.516;2022-08-11T16:07:07;3.47;;;1.30;;
71106;SDS011;58763;47.982;11.516;2022-08-11T16:09:55;3.80;;;1.45;;
71106;SDS011;58763;47.982;11.516;2022-08-11T16:12:23;3.60;;;1.40;;
71106;SDS011;58763;47.982;11.516;2022-08-11T16:14:51;3.22;;;1.70;;
71106;SDS011;58763;47.982;11.516;2022-08-11T16:17:46;2.67;;;1.30;;
71106;SDS011;58763;47.982;11.516;2022-08-11T16:20:16;3.33;;;1.63;;
71106;SDS011;58763;47.982;11.516;2022-08-11T16:22:45;4.65;;;1.65;;
71106;SDS011;58763;47.982;11.516;2022-08-11T16:25:17;3.45;;;1.58;;
71106;SDS011;58763;47.982;11.516;2022-08-11T16:27:49;3.25;;;1.80;;
71106;SDS011;58763;47.982;11.516;2022-08-11T16:30:17;2.70;;;1.40;;
71106;SDS011;58763;47.982;11.516;2022-08-11T16:32:44;3.40;;;1.50;;
71106;SDS011;58763;47.982;11.516;2022-08-11T16:35:23;3.53;;;1.60;;
71106;SDS011;58763;47.982;11.516;2022-08-11T16:38:09;5.80;;;1.55;;
71106;SDS011;58763;47.982;11.516;2022-08-11T16:40:56;4.00;;;1.63;;
71106;SDS011;58763;47.982;11.516;2022-08-11T16:43:25;3.70;;;1.58;;
71106;SDS011;58763;47.982;11.516;2022-08-11T16:46:12;4.45;;;1.70;;
71106;SDS011;58763;47.982;11.516;2022-08-11T16:49:00;3.22;;;1.73;;
71106;SDS011;58763;47.982;11.516;2022-08-11T16:51:32;2.97;;;1.52;;
71106;SDS011;58763;47.982;11.516;2022-08-11T16:53:58;2.90;;;1.60;;
71106;SDS011;58763;47.982;11.516;2022-08-11T16:56:29;3.25;;;1.75;;
71106;SDS011;58763;47.982;11.516;2022-08-11T16:59:00;5.32;;;1.67;;
71106;SDS011;58763;47.982;11.516;2022-08-11T17:02:25;3.58;;;1.70;;
71106;SDS011;58763;47.982;11.516;2022-08-11T17:04:51;3.60;;;1.50;;
71106;SDS011;58763;47.982;11.516;2022-08-11T17:07:38;2.50;;;1.45;;
71106;SDS011;58763;47.982;11.516;2022-08-11T17:13:16;5.60;;;1.70;;
71106;SDS011;58763;47.982;11.516;2022-08-11T17:15:45;4.30;;;1.63;;
71106;SDS011;58763;47.982;11.516;2022-08-11T17:18:32;6.82;;;1.67;;
71106;SDS011;58763;47.982;11.516;2022-08-11T17:21:05;3.67;;;1.80;;
71106;SDS011;58763;47.982;11.516;2022-08-11T17:23:32;4.45;;;1.80;;
71106;SDS011;58763;47.982;11.516;2022-08-11T17:29:16;4.22;;;1.55;;
71106;SDS011;58763;47.982;11.516;2022-08-11T17:31:46;4.43;;;1.77;;
71106;SDS011;58763;47.982;11.516;2022-08-11T17:34:32;4.18;;;1.92;;
71106;SDS011;58763;47.982;11.516;2022-08-11T17:37:17;3.28;;;1.55;;
71106;SDS011;58763;47.982;11.516;2022-08-11T17:39:45;3.22;;;1.65;;
71106;SDS011;58763;47.982;11.516;2022-08-11T17:42:20;6.15;;;1.80;;
71106;SDS011;58763;47.982;11.516;2022-08-11T17:45:06;4.47;;;1.90;;
71106;SDS011;58763;47.982;11.516;2022-08-11T17:47:52;5.47;;;1.70;;
71106;SDS011;58763;47.982;11.516;2022-08-11T17:50:38;3.05;;;1.67;;
71106;SDS011;58763;47.982;11.516;2022-08-11T17:53:05;11.48;;;2.00;;
71106;SDS011;58763;47.982;11.516;2022-08-11T17:55:50;5.28;;;1.52;;
71106;SDS011;58763;47.982;11.516;2022-08-11T17:58:37;4.03;;;1.80;;
71106;SDS011;58763;47.982;11.516;2022-08-11T18:01:24;4.18;;;1.70;;
71106;SDS011;58763;47.982;11.516;2022-08-11T18:03:51;3.08;;;1.58;;
71106;SDS011;58763;47.982;11.516;2022-08-11T18:06:19;3.45;;;1.70;;
71106;SDS011;58763;47.982;11.516;2022-08-11T18:08:45;4.45;;;1.40;;
71106;SDS011;58763;47.982;11.516;2022-08-11T18:11:32;3.30;;;1.60;;
71106;SDS011;58763;47.982;11.516;2022-08-11T18:14:18;4.00;;;1.63;;
71106;SDS011;58763;47.982;11.516;2022-08-11T18:17:03;8.00;;;2.17;;
71106;SDS011;58763;47.982;11.516;2022-08-11T18:19:48;9.15;;;2.13;;
71106;SDS011;58763;47.982;11.516;2022-08-11T18:22:34;3.05;;;1.60;;
71106;SDS011;58763;47.982;11.516;2022-08-11T18:25:25;3.35;;;1.63;;
71106;SDS011;58763;47.982;11.516;2022-08-11T18:28:14;3.25;;;1.70;;
71106;SDS011;58763;47.982;11.516;2022-08-11T18:31:04;5.60;;;1.63;;
71106;SDS011;58763;47.982;11.516;2022-08-11T18:33:53;3.90;;;1.70;;
71106;SDS011;58763;47.982;11.516;2022-08-11T18:37:01;4.05;;;1.75;;
71106;SDS011;58763;47.982;11.516;2022-08-11T18:39:48;3.63;;;1.38;;
71106;SDS011;58763;47.982;11.516;2022-08-11T18:42:39;3.17;;;1.42;;
71106;SDS011;58763;47.982;11.516;2022-08-11T18:45:25;3.85;;;1.80;;
71106;SDS011;58763;47.982;11.516;2022-08-11T18:48:11;4.88;;;1.67;;
71106;SDS011;58763;47.982;11.516;2022-08-11T18:50:59;3.83;;;1.40;;
71106;SDS011;58763;47.982;11.516;2022-08-11T18:53:50;4.53;;;1.70;;
71106;SDS011;58763;47.982;11.516;2022-08-11T18:56:38;4.85;;;1.80;;
71106;SDS011;58763;47.982;11.516;2022-08-11T18:59:25;2.90;;;1.45;;
71106;SDS011;58763;47.982;11.516;2022-08-11T19:02:11;3.47;;;1.70;;
71106;SDS011;58763;47.982;11.516;2022-08-11T19:04:58;3.30;;;1.58;;
71106;SDS011;58763;47.982;11.516;2022-08-11T19:07:44;3.60;;;1.40;;
71106;SDS011;58763;47.982;11.516;2022-08-11T19:10:33;3.80;;;1.60;;
71106;SDS011;58763;47.982;11.516;2022-08-11T19:13:17;6.38;;;1.83;;
71106;SDS011;58763;47.982;11.516;2022-08-11T19:16:03;3.35;;;1.60;;
71106;SDS011;58763;47.982;11.516;2022-08-11T19:18:49;4.03;;;1.48;;